sensor_id;sensor_type;location;lat;lon;timestamp;pressure;altitude;pressure_sealevel;temperature;humidity
48200;BME280;33990;44.602;10.976;2023-04-06T00:01:31;101444.13;;;18.08;36.84
48200;BME280;33990;44.602;10.976;2023-04-06T00:03:59;101443.28;;;18.07;36.79
48200;BME280;33990;44.602;10.976;2023-04-06T00:06:26;101442.38;;;18.07;36.61
48200;BME280;33990;44.602;10.976;2023-04-06T00:08:54;101442.38;;;18.07;36.64
48200;BME280;33990;44.602;10.976;2023-04-06T00:11:22;101439.81;;;18.05;36.63
48200;BME280;33990;44.602;10.976;2023-04-06T00:13:49;101443.34;;;18.06;36.65
48200;BME280;33990;44.602;10.976;2023-04-06T00:16:17;101438.97;;;18.04;36.52
48200;BME280;33990;44.602;10.976;2023-04-06T00:18:44;101432.75;;;18.04;36.55
48200;BME280;33990;44.602;10.976;2023-04-06T00:21:12;101428.38;;;18.03;36.55
48200;BME280;33990;44.602;10.976;2023-04-06T00:23:41;101439.94;;;18.03;36.68
48200;BME280;33990;44.602;10.976;2023-04-06T00:26:08;101431.91;;;18.03;36.72
48200;BME280;33990;44.602;10.976;2023-04-06T00:28:37;101440.88;;;18.02;36.62
48200;BME280;33990;44.602;10.976;2023-04-06T00:31:04;101442.72;;;18.02;36.57
48200;BME280;33990;44.602;10.976;2023-04-06T00:33:32;101441.88;;;18.01;36.79
48200;BME280;33990;44.602;10.976;2023-04-06T00:35:59;101446.38;;;18.01;36.64
48200;BME280;33990;44.602;10.976;2023-04-06T00:38:27;101443.69;;;18.01;36.70
48200;BME280;33990;44.602;10.976;2023-04-06T00:40:54;101439.31;;;18.00;36.71
48200;BME280;33990;44.602;10.976;2023-04-06T00:43:21;101444.66;;;18.00;36.70
48200;BME280;33990;44.602;10.976;2023-04-06T00:45:49;101444.66;;;18.00;36.83
48200;BME280;33990;44.602;10.976;2023-04-06T00:48:16;101448.31;;;17.99;36.79
48200;BME280;33990;44.602;10.976;2023-04-06T00:50:43;101449.16;;;17.99;36.81
48200;BME280;33990;44.602;10.976;2023-04-06T00:53:11;101457.28;;;17.98;36.73
48200;BME280;33990;44.602;10.976;2023-04-06T00:55:38;101459.03;;;17.99;36.75
48200;BME280;33990;44.602;10.976;2023-04-06T00:58:06;101455.47;;;17.98;36.70
48200;BME280;33990;44.602;10.976;2023-04-06T01:00:43;101445.72;;;17.97;36.89
48200;BME280;33990;44.602;10.976;2023-04-06T01:03:15;101444.00;;;17.96;36.91
48200;BME280;33990;44.602;10.976;2023-04-06T01:05:43;101438.66;;;17.96;37.18
48200;BME280;33990;44.602;10.976;2023-04-06T01:08:19;101443.16;;;17.96;37.04
48200;BME280;33990;44.602;10.976;2023-04-06T01:10:50;101438.66;;;17.96;37.13
48200;BME280;33990;44.602;10.976;2023-04-06T01:13:27;101435.00;;;17.97;37.25
48200;BME280;33990;44.602;10.976;2023-04-06T01:15:59;101439.50;;;17.97;37.10
48200;BME280;33990;44.602;10.976;2023-04-06T01:18:53;101437.81;;;17.96;36.97
48200;BME280;33990;44.602;10.976;2023-04-06T01:21:25;101431.59;;;17.95;36.90
48200;BME280;33990;44.602;10.976;2023-04-06T01:24:17;101432.44;;;17.96;36.95
48200;BME280;33990;44.602;10.976;2023-04-06T01:27:03;101429.84;;;17.94;37.34
48200;BME280;33990;44.602;10.976;2023-04-06T01:29:52;101417.44;;;17.93;37.27
48200;BME280;33990;44.602;10.976;2023-04-06T01:32:33;101416.47;;;17.94;37.32
48200;BME280;33990;44.602;10.976;2023-04-06T01:35:01;101423.66;;;17.94;37.25
48200;BME280;33990;44.602;10.976;2023-04-06T01:37:30;101418.28;;;17.94;37.39
48200;BME280;33990;44.602;10.976;2023-04-06T01:40:03;101423.66;;;17.94;37.39
48200;BME280;33990;44.602;10.976;2023-04-06T01:42:43;101425.38;;;17.95;37.46
48200;BME280;33990;44.602;10.976;2023-04-06T01:45:15;101423.66;;;17.94;37.54
48200;BME280;33990;44.602;10.976;2023-04-06T01:47:44;101422.78;;;17.93;37.54
48200;BME280;33990;44.602;10.976;2023-04-06T01:50:12;101424.50;;;17.94;37.40
48200;BME280;33990;44.602;10.976;2023-04-06T01:52:44;101423.66;;;17.94;37.30
48200;BME280;33990;44.602;10.976;2023-04-06T01:55:12;101423.66;;;17.94;37.20
48200;BME280;33990;44.602;10.976;2023-04-06T01:58:02;101415.72;;;17.92;37.24
48200;BME280;33990;44.602;10.976;2023-04-06T02:00:35;101412.19;;;17.92;37.22
48200;BME280;33990;44.602;10.976;2023-04-06T02:03:02;101413.16;;;17.91;37.11
48200;BME280;33990;44.602;10.976;2023-04-06T02:05:32;101410.50;;;17.91;37.09
48200;BME280;33990;44.602;10.976;2023-04-06T02:08:18;101401.56;;;17.90;37.29
48200;BME280;33990;44.602;10.976;2023-04-06T02:10:46;101406.06;;;17.90;37.21
48200;BME280;33990;44.602;10.976;2023-04-06T02:13:23;101404.38;;;17.89;37.09
48200;BME280;33990;44.602;10.976;2023-04-06T02:15:52;101402.53;;;17.89;37.31
48200;BME280;33990;44.602;10.976;2023-04-06T02:18:20;101407.91;;;17.89;37.17
48200;BME280;33990;44.602;10.976;2023-04-06T02:20:47;101399.88;;;17.89;37.23
48200;BME280;33990;44.602;10.976;2023-04-06T02:23:15;101399.13;;;17.87;37.17
48200;BME280;33990;44.602;10.976;2023-04-06T02:25:42;101403.53;;;17.88;37.17
48200;BME280;33990;44.602;10.976;2023-04-06T02:28:10;101400.00;;;17.88;37.27
48200;BME280;33990;44.602;10.976;2023-04-06T02:30:37;101400.97;;;17.87;37.13
48200;BME280;33990;44.602;10.976;2023-04-06T02:33:04;101403.63;;;17.87;37.15
48200;BME280;33990;44.602;10.976;2023-04-06T02:35:40;101398.38;;;17.85;37.14
48200;BME280;33990;44.602;10.976;2023-04-06T02:38:07;101403.63;;;17.87;37.15
48200;BME280;33990;44.602;10.976;2023-04-06T02:40:35;101404.59;;;17.86;37.05
48200;BME280;33990;44.602;10.976;2023-04-06T02:43:13;101408.13;;;17.86;37.08
48200;BME280;33990;44.602;10.976;2023-04-06T02:45:42;101400.19;;;17.85;37.08
48200;BME280;33990;44.602;10.976;2023-04-06T02:48:11;101396.66;;;17.84;37.03
48200;BME280;33990;44.602;10.976;2023-04-06T02:50:38;101405.56;;;17.85;37.15
48200;BME280;33990;44.602;10.976;2023-04-06T02:53:07;101402.03;;;17.84;37.12
48200;BME280;33990;44.602;10.976;2023-04-06T02:55:36;101399.47;;;17.83;37.17
48200;BME280;33990;44.602;10.976;2023-04-06T02:58:04;101400.31;;;17.83;37.12
48200;BME280;33990;44.602;10.976;2023-04-06T03:00:40;101400.41;;;17.82;37.02
48200;BME280;33990;44.602;10.976;2023-04-06T03:03:08;101410.19;;;17.83;37.11
48200;BME280;33990;44.602;10.976;2023-04-06T03:05:36;101410.25;;;17.81;37.07
48200;BME280;33990;44.602;10.976;2023-04-06T03:08:04;101410.25;;;17.81;37.10
48200;BME280;33990;44.602;10.976;2023-04-06T03:10:39;101412.09;;;17.81;37.05
48200;BME280;33990;44.602;10.976;2023-04-06T03:13:06;101407.59;;;17.81;37.02
48200;BME280;33990;44.602;10.976;2023-04-06T03:15:49;101412.94;;;17.81;37.14
48200;BME280;33990;44.602;10.976;2023-04-06T03:18:24;101415.75;;;17.79;37.30
48200;BME280;33990;44.602;10.976;2023-04-06T03:20:53;101418.41;;;17.79;37.02
48200;BME280;33990;44.602;10.976;2023-04-06T03:23:32;101420.25;;;17.79;37.05
48200;BME280;33990;44.602;10.976;2023-04-06T03:26:02;101425.59;;;17.79;37.19
48200;BME280;33990;44.602;10.976;2023-04-06T03:28:30;101428.28;;;17.79;37.14
48200;BME280;33990;44.602;10.976;2023-04-06T03:31:01;101430.09;;;17.78;37.10
48200;BME280;33990;44.602;10.976;2023-04-06T03:33:43;101432.78;;;17.78;37.18
48200;BME280;33990;44.602;10.976;2023-04-06T03:36:17;101431.03;;;17.77;37.23
48200;BME280;33990;44.602;10.976;2023-04-06T03:38:45;101428.38;;;17.77;37.15
48200;BME280;33990;44.602;10.976;2023-04-06T03:41:14;101427.50;;;17.77;37.18
48200;BME280;33990;44.602;10.976;2023-04-06T03:43:48;101438.22;;;17.77;37.19
48200;BME280;33990;44.602;10.976;2023-04-06T03:46:17;101440.06;;;17.76;37.10
48200;BME280;33990;44.602;10.976;2023-04-06T03:48:48;101434.69;;;17.76;37.16
48200;BME280;33990;44.602;10.976;2023-04-06T03:51:17;101437.50;;;17.75;37.19
48200;BME280;33990;44.602;10.976;2023-04-06T03:53:45;101439.31;;;17.74;36.99
48200;BME280;33990;44.602;10.976;2023-04-06T03:56:12;101441.03;;;17.75;37.07
48200;BME280;33990;44.602;10.976;2023-04-06T03:58:40;101431.28;;;17.74;37.21
48200;BME280;33990;44.602;10.976;2023-04-06T04:01:07;101439.19;;;17.76;37.25
48200;BME280;33990;44.602;10.976;2023-04-06T04:03:34;101432.19;;;17.73;37.26
48200;BME280;33990;44.602;10.976;2023-04-06T04:06:02;101435.84;;;17.72;37.25
48200;BME280;33990;44.602;10.976;2023-04-06T04:08:30;101448.38;;;17.72;37.27
48200;BME280;33990;44.602;10.976;2023-04-06T04:10:57;101447.41;;;17.73;37.32
48200;BME280;33990;44.602;10.976;2023-04-06T04:13:25;101452.75;;;17.73;37.22
48200;BME280;33990;44.602;10.976;2023-04-06T04:15:52;101450.19;;;17.71;37.33
48200;BME280;33990;44.602;10.976;2023-04-06T04:18:20;101451.06;;;17.72;37.23
48200;BME280;33990;44.602;10.976;2023-04-06T04:20:47;101453.72;;;17.72;37.14
48200;BME280;33990;44.602;10.976;2023-04-06T04:23:15;101452.03;;;17.71;37.31
48200;BME280;33990;44.602;10.976;2023-04-06T04:25:43;101446.66;;;17.71;37.20
48200;BME280;33990;44.602;10.976;2023-04-06T04:28:11;101449.34;;;17.71;37.43
48200;BME280;33990;44.602;10.976;2023-04-06T04:30:40;101452.03;;;17.71;37.43
48200;BME280;33990;44.602;10.976;2023-04-06T04:33:10;101439.56;;;17.70;37.45
48200;BME280;33990;44.602;10.976;2023-04-06T04:35:37;101431.53;;;17.70;37.40
48200;BME280;33990;44.602;10.976;2023-04-06T04:38:06;101437.78;;;17.70;37.26
48200;BME280;33990;44.602;10.976;2023-04-06T04:40:37;101436.91;;;17.70;37.25
48200;BME280;33990;44.602;10.976;2023-04-06T04:43:09;101440.47;;;17.70;37.29
48200;BME280;33990;44.602;10.976;2023-04-06T04:45:38;101433.38;;;17.69;37.32
48200;BME280;33990;44.602;10.976;2023-04-06T04:48:15;101437.03;;;17.68;37.47
48200;BME280;33990;44.602;10.976;2023-04-06T04:50:51;101439.69;;;17.68;37.14
48200;BME280;33990;44.602;10.976;2023-04-06T04:53:23;101441.53;;;17.68;37.21
48200;BME280;33990;44.602;10.976;2023-04-06T04:55:55;101444.19;;;17.68;37.24
48200;BME280;33990;44.602;10.976;2023-04-06T04:58:25;101442.50;;;17.67;37.27
48200;BME280;33990;44.602;10.976;2023-04-06T05:00:57;101448.69;;;17.67;37.24
48200;BME280;33990;44.602;10.976;2023-04-06T05:03:26;101447.84;;;17.67;37.15
48200;BME280;33990;44.602;10.976;2023-04-06T05:06:01;101452.34;;;17.66;37.17
48200;BME280;33990;44.602;10.976;2023-04-06T05:08:33;101447.94;;;17.65;37.27
48200;BME280;33990;44.602;10.976;2023-04-06T05:11:01;101450.59;;;17.65;37.16
48200;BME280;33990;44.602;10.976;2023-04-06T05:13:32;101447.94;;;17.65;37.28
48200;BME280;33990;44.602;10.976;2023-04-06T05:16:05;101450.72;;;17.64;37.27
48200;BME280;33990;44.602;10.976;2023-04-06T05:18:33;101452.56;;;17.63;37.13
48200;BME280;33990;44.602;10.976;2023-04-06T05:21:02;101449.88;;;17.63;37.06
48200;BME280;33990;44.602;10.976;2023-04-06T05:23:47;101451.69;;;17.63;37.22
48200;BME280;33990;44.602;10.976;2023-04-06T05:26:15;101453.50;;;17.62;37.23
48200;BME280;33990;44.602;10.976;2023-04-06T05:28:42;101448.13;;;17.62;37.16
48200;BME280;33990;44.602;10.976;2023-04-06T05:31:12;101444.59;;;17.62;37.14
48200;BME280;33990;44.602;10.976;2023-04-06T05:33:46;101448.25;;;17.61;37.20
48200;BME280;33990;44.602;10.976;2023-04-06T05:36:15;101442.03;;;17.60;37.26
48200;BME280;33990;44.602;10.976;2023-04-06T05:38:45;101448.25;;;17.61;37.30
48200;BME280;33990;44.602;10.976;2023-04-06T05:41:27;101447.41;;;17.60;37.28
48200;BME280;33990;44.602;10.976;2023-04-06T05:43:55;101444.72;;;17.60;37.23
48200;BME280;33990;44.602;10.976;2023-04-06T05:46:24;101452.75;;;17.60;37.18
48200;BME280;33990;44.602;10.976;2023-04-06T05:48:53;101450.06;;;17.60;37.19
48200;BME280;33990;44.602;10.976;2023-04-06T05:51:24;101460.78;;;17.60;37.20
48200;BME280;33990;44.602;10.976;2023-04-06T05:53:52;101453.72;;;17.59;37.22
48200;BME280;33990;44.602;10.976;2023-04-06T05:56:19;101461.75;;;17.59;37.22
48200;BME280;33990;44.602;10.976;2023-04-06T05:58:47;101462.69;;;17.58;37.36
48200;BME280;33990;44.602;10.976;2023-04-06T06:01:21;101464.53;;;17.58;37.32
48200;BME280;33990;44.602;10.976;2023-04-06T06:03:48;101466.34;;;17.57;37.42
48200;BME280;33990;44.602;10.976;2023-04-06T06:06:16;101475.22;;;17.58;37.46
48200;BME280;33990;44.602;10.976;2023-04-06T06:09:06;101478.88;;;17.57;37.48
48200;BME280;33990;44.602;10.976;2023-04-06T06:11:39;101479.66;;;17.59;37.60
48200;BME280;33990;44.602;10.976;2023-04-06T06:14:08;101479.72;;;17.57;37.42
48200;BME280;33990;44.602;10.976;2023-04-06T06:16:40;101478.75;;;17.58;37.52
48200;BME280;33990;44.602;10.976;2023-04-06T06:19:10;101486.78;;;17.58;37.76
48200;BME280;33990;44.602;10.976;2023-04-06T06:21:38;101485.09;;;17.57;37.74
48200;BME280;33990;44.602;10.976;2023-04-06T06:24:07;101485.94;;;17.58;37.69
48200;BME280;33990;44.602;10.976;2023-04-06T06:26:34;101485.09;;;17.57;37.75
48200;BME280;33990;44.602;10.976;2023-04-06T06:29:06;101482.41;;;17.57;37.60
48200;BME280;33990;44.602;10.976;2023-04-06T06:31:37;101480.59;;;17.58;37.63
48200;BME280;33990;44.602;10.976;2023-04-06T06:34:05;101488.63;;;17.58;37.54
48200;BME280;33990;44.602;10.976;2023-04-06T06:36:34;101487.69;;;17.59;37.50
48200;BME280;33990;44.602;10.976;2023-04-06T06:39:05;101485.84;;;17.59;37.38
48200;BME280;33990;44.602;10.976;2023-04-06T06:41:33;101491.22;;;17.59;37.40
48200;BME280;33990;44.602;10.976;2023-04-06T06:44:01;101481.34;;;17.60;37.47
48200;BME280;33990;44.602;10.976;2023-04-06T06:46:28;101475.16;;;17.59;37.45
48200;BME280;33990;44.602;10.976;2023-04-06T06:48:55;101483.19;;;17.59;37.67
48200;BME280;33990;44.602;10.976;2023-04-06T06:51:23;101486.59;;;17.61;37.65
48200;BME280;33990;44.602;10.976;2023-04-06T06:53:51;101483.91;;;17.61;37.13
48200;BME280;33990;44.602;10.976;2023-04-06T06:56:19;101489.19;;;17.63;37.17
48200;BME280;33990;44.602;10.976;2023-04-06T06:58:46;101489.91;;;17.65;37.07
48200;BME280;33990;44.602;10.976;2023-04-06T07:01:14;101491.63;;;17.66;36.46
48200;BME280;33990;44.602;10.976;2023-04-06T07:03:42;101491.53;;;17.67;36.32
48200;BME280;33990;44.602;10.976;2023-04-06T07:06:09;101485.22;;;17.68;36.41
48200;BME280;33990;44.602;10.976;2023-04-06T07:08:39;101489.59;;;17.69;36.55
48200;BME280;33990;44.602;10.976;2023-04-06T07:11:06;101502.91;;;17.71;36.51
48200;BME280;33990;44.602;10.976;2023-04-06T07:13:34;101505.47;;;17.72;36.56
48200;BME280;33990;44.602;10.976;2023-04-06T07:16:02;101502.78;;;17.72;36.88
48200;BME280;33990;44.602;10.976;2023-04-06T07:18:30;101508.94;;;17.74;36.91
48200;BME280;33990;44.602;10.976;2023-04-06T07:20:59;101504.44;;;17.75;34.86
48200;BME280;33990;44.602;10.976;2023-04-06T07:23:26;101499.13;;;17.73;34.48
48200;BME280;33990;44.602;10.976;2023-04-06T07:25:54;101502.66;;;17.74;33.91
48200;BME280;33990;44.602;10.976;2023-04-06T07:28:21;101497.44;;;17.72;33.50
48200;BME280;33990;44.602;10.976;2023-04-06T07:30:49;101504.63;;;17.72;33.83
48200;BME280;33990;44.602;10.976;2023-04-06T07:33:17;101506.31;;;17.73;33.29
48200;BME280;33990;44.602;10.976;2023-04-06T07:35:46;101498.50;;;17.70;31.93
48200;BME280;33990;44.602;10.976;2023-04-06T07:38:14;101497.75;;;17.68;32.43
48200;BME280;33990;44.602;10.976;2023-04-06T07:40:42;101495.94;;;17.68;33.74
48200;BME280;33990;44.602;10.976;2023-04-06T07:43:10;101494.97;;;17.69;34.36
48200;BME280;33990;44.602;10.976;2023-04-06T07:45:37;101502.91;;;17.71;34.87
48200;BME280;33990;44.602;10.976;2023-04-06T07:48:05;101503.84;;;17.70;34.61
48200;BME280;33990;44.602;10.976;2023-04-06T07:50:34;101501.81;;;17.73;33.72
48200;BME280;33990;44.602;10.976;2023-04-06T07:53:02;101500.09;;;17.72;32.50
48200;BME280;33990;44.602;10.976;2023-04-06T07:55:30;101506.31;;;17.73;32.02
48200;BME280;33990;44.602;10.976;2023-04-06T07:57:57;101507.41;;;17.70;32.19
48200;BME280;33990;44.602;10.976;2023-04-06T08:00:25;101510.09;;;17.70;32.23
48200;BME280;33990;44.602;10.976;2023-04-06T08:02:52;101503.84;;;17.70;32.24
48200;BME280;33990;44.602;10.976;2023-04-06T08:05:19;101504.81;;;17.69;32.20
48200;BME280;33990;44.602;10.976;2023-04-06T08:07:47;101509.31;;;17.68;32.87
48200;BME280;33990;44.602;10.976;2023-04-06T08:10:15;101502.91;;;17.71;33.93
48200;BME280;33990;44.602;10.976;2023-04-06T08:12:42;101500.22;;;17.71;32.68
48200;BME280;33990;44.602;10.976;2023-04-06T08:15:09;101499.25;;;17.72;32.44
48200;BME280;33990;44.602;10.976;2023-04-06T08:17:37;101496.56;;;17.72;32.22
48200;BME280;33990;44.602;10.976;2023-04-06T08:20:05;101497.44;;;17.72;31.84
48200;BME280;33990;44.602;10.976;2023-04-06T08:22:32;101488.53;;;17.72;31.63
48200;BME280;33990;44.602;10.976;2023-04-06T08:24:59;101492.06;;;17.72;32.26
48200;BME280;33990;44.602;10.976;2023-04-06T08:27:27;101491.09;;;17.73;31.63
48200;BME280;33990;44.602;10.976;2023-04-06T08:29:54;101495.59;;;17.73;32.17
48200;BME280;33990;44.602;10.976;2023-04-06T08:32:21;101498.22;;;17.74;32.49
48200;BME280;33990;44.602;10.976;2023-04-06T08:34:49;101501.66;;;17.76;32.89
48200;BME280;33990;44.602;10.976;2023-04-06T08:37:16;101498.84;;;17.78;34.50
48200;BME280;33990;44.602;10.976;2023-04-06T08:39:43;101497.06;;;17.78;34.19
48200;BME280;33990;44.602;10.976;2023-04-06T08:42:19;101500.47;;;17.81;33.99
48200;BME280;33990;44.602;10.976;2023-04-06T08:44:48;101492.44;;;17.81;34.14
48200;BME280;33990;44.602;10.976;2023-04-06T08:47:19;101497.78;;;17.81;34.75
48200;BME280;33990;44.602;10.976;2023-04-06T08:49:50;101496.81;;;17.82;34.79
48200;BME280;33990;44.602;10.976;2023-04-06T08:52:19;101493.28;;;17.81;35.44
48200;BME280;33990;44.602;10.976;2023-04-06T08:54:47;101497.69;;;17.82;34.90
48200;BME280;33990;44.602;10.976;2023-04-06T08:57:15;101488.72;;;17.83;35.54
48200;BME280;33990;44.602;10.976;2023-04-06T08:59:44;101494.91;;;17.84;35.19
48200;BME280;33990;44.602;10.976;2023-04-06T09:02:17;101493.94;;;17.85;35.43
48200;BME280;33990;44.602;10.976;2023-04-06T09:04:49;101485.91;;;17.85;35.45
48200;BME280;33990;44.602;10.976;2023-04-06T09:07:19;101489.44;;;17.85;35.45
48200;BME280;33990;44.602;10.976;2023-04-06T09:09:47;101484.94;;;17.86;35.29
48200;BME280;33990;44.602;10.976;2023-04-06T09:12:29;101485.91;;;17.85;35.04
48200;BME280;33990;44.602;10.976;2023-04-06T09:14:58;101490.28;;;17.86;35.58
48200;BME280;33990;44.602;10.976;2023-04-06T09:17:29;101490.28;;;17.86;35.90
48200;BME280;33990;44.602;10.976;2023-04-06T09:19:57;101485.78;;;17.86;36.04
48200;BME280;33990;44.602;10.976;2023-04-06T09:22:24;101497.38;;;17.87;36.24
48200;BME280;33990;44.602;10.976;2023-04-06T09:24:53;101480.34;;;17.88;39.11
48200;BME280;33990;44.602;10.976;2023-04-06T09:27:35;101477.66;;;17.88;37.97
48200;BME280;33990;44.602;10.976;2023-04-06T09:32:32;101487.41;;;17.89;35.56
48200;BME280;33990;44.602;10.976;2023-04-06T09:35:07;101472.31;;;17.88;35.45
48200;BME280;33990;44.602;10.976;2023-04-06T09:37:35;101474.00;;;17.89;35.66
48200;BME280;33990;44.602;10.976;2023-04-06T09:40:06;101466.84;;;17.89;35.88
48200;BME280;33990;44.602;10.976;2023-04-06T09:42:34;101465.97;;;17.89;35.53
48200;BME280;33990;44.602;10.976;2023-04-06T09:45:03;101463.31;;;17.89;35.78
48200;BME280;33990;44.602;10.976;2023-04-06T09:47:30;101461.47;;;17.89;36.08
48200;BME280;33990;44.602;10.976;2023-04-06T09:49:59;101460.63;;;17.89;36.17
48200;BME280;33990;44.602;10.976;2023-04-06T09:52:32;101456.25;;;17.88;36.23
48200;BME280;33990;44.602;10.976;2023-04-06T09:55:03;101448.94;;;17.90;35.83
48200;BME280;33990;44.602;10.976;2023-04-06T09:57:58;101447.22;;;17.89;33.22
48200;BME280;33990;44.602;10.976;2023-04-06T10:00:32;101439.19;;;17.89;32.66
48200;BME280;33990;44.602;10.976;2023-04-06T10:05:52;101433.63;;;17.92;35.23
48200;BME280;33990;44.602;10.976;2023-04-06T10:08:24;101435.34;;;17.93;36.53
48200;BME280;33990;44.602;10.976;2023-04-06T10:10:58;101433.50;;;17.93;36.20
48200;BME280;33990;44.602;10.976;2023-04-06T10:13:27;101429.00;;;17.94;36.51
48200;BME280;33990;44.602;10.976;2023-04-06T10:15:55;101423.66;;;17.94;36.34
48200;BME280;33990;44.602;10.976;2023-04-06T10:18:24;101430.75;;;17.95;37.26
48200;BME280;33990;44.602;10.976;2023-04-06T10:21:04;101425.38;;;17.95;36.73
48200;BME280;33990;44.602;10.976;2023-04-06T10:23:41;101420.88;;;17.95;36.50
48200;BME280;33990;44.602;10.976;2023-04-06T10:26:15;101410.16;;;17.95;36.52
48200;BME280;33990;44.602;10.976;2023-04-06T10:28:45;101411.03;;;17.96;36.70
48200;BME280;33990;44.602;10.976;2023-04-06T10:31:12;101413.69;;;17.96;36.80
48200;BME280;33990;44.602;10.976;2023-04-06T10:33:41;101411.88;;;17.96;36.46
48200;BME280;33990;44.602;10.976;2023-04-06T10:38:38;101399.31;;;17.97;36.48
48200;BME280;33990;44.602;10.976;2023-04-06T10:41:09;101400.31;;;17.96;36.51
48200;BME280;33990;44.602;10.976;2023-04-06T10:43:39;101400.09;;;17.99;37.56
48200;BME280;33990;44.602;10.976;2023-04-06T10:46:09;101400.94;;;17.99;37.58
48200;BME280;33990;44.602;10.976;2023-04-06T10:48:45;101399.13;;;18.00;36.37
48200;BME280;33990;44.602;10.976;2023-04-06T10:51:18;101394.72;;;17.99;37.05
48200;BME280;33990;44.602;10.976;2023-04-06T10:53:47;101393.75;;;18.00;35.95
48200;BME280;33990;44.602;10.976;2023-04-06T10:56:24;101394.72;;;17.99;34.71
48200;BME280;33990;44.602;10.976;2023-04-06T10:58:54;101384.09;;;17.97;32.54
48200;BME280;33990;44.602;10.976;2023-04-06T11:01:24;101383.38;;;17.95;32.05
48200;BME280;33990;44.602;10.976;2023-04-06T11:03:56;101384.44;;;17.93;32.00
48200;BME280;33990;44.602;10.976;2023-04-06T11:06:28;101376.63;;;17.90;30.92
48200;BME280;33990;44.602;10.976;2023-04-06T11:08:58;101378.56;;;17.88;30.31
48200;BME280;33990;44.602;10.976;2023-04-06T11:11:26;101373.28;;;17.86;30.86
48200;BME280;33990;44.602;10.976;2023-04-06T11:13:58;101360.16;;;17.83;30.88
48200;BME280;33990;44.602;10.976;2023-04-06T11:16:28;101368.19;;;17.83;31.65
48200;BME280;33990;44.602;10.976;2023-04-06T11:19:01;101358.31;;;17.84;33.08
48200;BME280;33990;44.602;10.976;2023-04-06T11:21:40;101357.34;;;17.85;33.73
48200;BME280;33990;44.602;10.976;2023-04-06T11:24:18;101353.69;;;17.86;34.10
48200;BME280;33990;44.602;10.976;2023-04-06T11:29:30;101342.88;;;17.87;34.45
48200;BME280;33990;44.602;10.976;2023-04-06T11:32:03;101349.09;;;17.88;34.86
48200;BME280;33990;44.602;10.976;2023-04-06T11:34:33;101341.91;;;17.88;34.97
48200;BME280;33990;44.602;10.976;2023-04-06T11:37:07;101345.44;;;17.89;35.19
48200;BME280;33990;44.602;10.976;2023-04-06T11:39:49;101344.59;;;17.88;35.26
48200;BME280;33990;44.602;10.976;2023-04-06T11:42:25;101340.94;;;17.89;35.43
48200;BME280;33990;44.602;10.976;2023-04-06T11:44:59;101336.44;;;17.90;35.48
48200;BME280;33990;44.602;10.976;2023-04-06T11:47:32;101336.44;;;17.90;35.68
48200;BME280;33990;44.602;10.976;2023-04-06T11:50:08;101328.41;;;17.90;35.90
48200;BME280;33990;44.602;10.976;2023-04-06T11:52:35;101325.72;;;17.90;36.00
48200;BME280;33990;44.602;10.976;2023-04-06T11:55:14;101313.31;;;17.89;36.04
48200;BME280;33990;44.602;10.976;2023-04-06T11:57:43;101320.38;;;17.90;36.20
48200;BME280;33990;44.602;10.976;2023-04-06T12:00:11;101323.03;;;17.90;36.37
48200;BME280;33990;44.602;10.976;2023-04-06T12:02:39;101323.03;;;17.90;36.35
48200;BME280;33990;44.602;10.976;2023-04-06T12:05:06;101315.97;;;17.89;36.47
48200;BME280;33990;44.602;10.976;2023-04-06T12:07:35;101313.19;;;17.90;36.48
48200;BME280;33990;44.602;10.976;2023-04-06T12:10:03;101312.31;;;17.90;36.56
48200;BME280;33990;44.602;10.976;2023-04-06T12:12:31;101308.78;;;17.89;36.42
48200;BME280;33990;44.602;10.976;2023-04-06T12:14:59;101307.81;;;17.90;36.16
48200;BME280;33990;44.602;10.976;2023-04-06T12:17:26;101298.09;;;17.89;36.30
48200;BME280;33990;44.602;10.976;2023-04-06T12:19:54;101296.25;;;17.90;36.42
48200;BME280;33990;44.602;10.976;2023-04-06T12:22:27;101293.56;;;17.90;36.37
48200;BME280;33990;44.602;10.976;2023-04-06T12:24:55;101293.56;;;17.90;36.48
48200;BME280;33990;44.602;10.976;2023-04-06T12:27:22;101291.88;;;17.89;36.58
48200;BME280;33990;44.602;10.976;2023-04-06T12:29:49;101282.88;;;17.90;36.65
48200;BME280;33990;44.602;10.976;2023-04-06T12:32:17;101284.59;;;17.91;36.71
48200;BME280;33990;44.602;10.976;2023-04-06T12:34:46;101275.69;;;17.90;36.68
48200;BME280;33990;44.602;10.976;2023-04-06T12:37:14;101279.25;;;17.91;36.57
48200;BME280;33990;44.602;10.976;2023-04-06T12:39:42;101268.53;;;17.91;36.68
48200;BME280;33990;44.602;10.976;2023-04-06T12:42:11;101272.91;;;17.92;36.61
48200;BME280;33990;44.602;10.976;2023-04-06T12:44:39;101264.97;;;17.90;36.65
48200;BME280;33990;44.602;10.976;2023-04-06T12:47:07;101260.50;;;17.91;36.65
48200;BME280;33990;44.602;10.976;2023-04-06T12:49:34;101264.03;;;17.91;36.69
48200;BME280;33990;44.602;10.976;2023-04-06T12:52:02;101257.81;;;17.91;36.67
48200;BME280;33990;44.602;10.976;2023-04-06T12:54:30;101246.22;;;17.90;36.70
48200;BME280;33990;44.602;10.976;2023-04-06T12:56:57;101241.75;;;17.91;36.68
48200;BME280;33990;44.602;10.976;2023-04-06T12:59:24;101248.81;;;17.92;36.76
48200;BME280;33990;44.602;10.976;2023-04-06T13:01:52;101247.81;;;17.93;36.65
48200;BME280;33990;44.602;10.976;2023-04-06T13:04:20;101243.44;;;17.92;36.79
48200;BME280;33990;44.602;10.976;2023-04-06T13:06:47;101231.03;;;17.91;36.65